Brescia, Italy

7:56 PM CEST on October 20, 2014 (GMT +0200)
Montirone | Change Station
CLOSE
Current Station
Personal Weather Station
Location: Montirone, BRESCIA
Elevation: 300 ft
Nearby Weather Stations

Elev 300 ft 45.45 °N, 10.23 °E | Updated 2 minutes ago

Mostly Cloudy
Mostly Cloudy
67.8 °F
Feels Like 67.8 °F
N
0.0
Wind Variable Wind from North
Gusts 0.0 mph

Today
High -- | Low -- °F
--% Chance of Precip.
Yesterday
High -- | Low -- °F
Precip. -- in
7:41 AM 6:25 PM
Waning Crescent, 10% visible
Pressure 30.09 in
Visibility 1.6 miles
Clouds Mostly Cloudy 5000 ft
Dew Point 65 °F
Humidity 87%
Rainfall -999.00 in
Snow Depth Not available.
UV 0 out of 12
Pollen Not available.
Air Quality Not available.
Flu Activity Not available.
METAR LIPX 201745Z 24003KT 2500 BR BKN050 19/17 Q1019

More Conditions Fewer Conditions

Pressure 30.09 in
Visibility 1.6 miles
Clouds Mostly Cloudy 5000 ft
Dew Point 65 °F
Humidity 87%
Rainfall -999.00 in
Snow Depth Not available.
UV 0 out of 12
Pollen Not available.
Air Quality Not available.
Flu Activity Not available.
METAR LIPX 201745Z 24003KT 2500 BR BKN050 19/17 Q1019

More Conditions Fewer Conditions

10-Day Weather Forecast

Almanac

Astronomy

Oct. 20, 2014 Rise Set
Actual Time 7:41 AM CEST 6:25 PM CEST
Civil Twilight 7:11 AM CEST 6:55 PM CEST
Nautical Twilight 6:36 AM CEST 7:29 PM CEST
Astronomical Twilight 6:02 AM CEST 8:03 PM CEST
Moon 4:04 AM CEST 4:47 PM CEST
Length of Visible Light 11h 44m
Length of Day
10h 43m
Tomorrow will be 3m 1s shorter.
Waning Crescent, 10% of the Moon is Illuminated
Today
Waning Crescent
Oct 23
New
Oct 30
First Quarter
Nov 6
Full
Nov 14
Last Quarter

Today's Extremes

Country Highs Country Lows

Community

WunderPhotos

Upload Photos

1,763,446 photos uploaded!

WunderBlogs® & News

Nearby

Snow Depth

Not available.

Earthquake Activity

City Distance Mag. Time & Date
No recent earthquake activity has been reported nearby.
Minimum magnitude displayed is 2.5.

Coastal Water Temperatures

Place Temperature
No Stations Reporting

Nearby Weather Stations